createdAt,value
2023-05-14T00:02:04.497Z,73.5
2023-05-14T00:04:04.600Z,72.69629
2023-05-14T00:06:04.351Z,72.1582
2023-05-14T00:08:04.451Z,71.00293
2023-05-14T00:10:04.405Z,71.1416
2023-05-14T00:12:04.428Z,71.30664
2023-05-14T00:14:04.395Z,71.17773
2023-05-14T00:17:13.988Z,71.71777
2023-05-14T00:19:14.079Z,71.61426
2023-05-14T00:21:13.902Z,72.4209
2023-05-14T00:23:13.930Z,72.17773
2023-05-14T00:25:13.858Z,71.52441
2023-05-14T00:27:13.967Z,73.47754
2023-05-14T00:29:13.852Z,72.57422
2023-05-14T00:32:46.848Z,74.91309
2023-05-14T00:34:45.992Z,73.17871
2023-05-14T00:36:46.119Z,72.52637
2023-05-14T00:38:46.147Z,71.91602
2023-05-14T00:40:45.975Z,71.40234
2023-05-14T00:42:46.073Z,71.66699
2023-05-14T00:44:45.897Z,71.67383
2023-05-14T00:47:35.479Z,72.22754
2023-05-14T00:49:35.258Z,72.93652
2023-05-14T00:51:35.408Z,73.3877
2023-05-14T00:53:35.372Z,74.00684
2023-05-14T00:55:35.128Z,73.48242
2023-05-14T00:57:35.368Z,73.08789
2023-05-14T00:59:35.495Z,73.25879
2023-05-14T01:02:26.358Z,72.73633
2023-05-14T01:04:26.203Z,72.26465
2023-05-14T01:06:26.263Z,71.98828
2023-05-14T01:08:26.228Z,72.14063
2023-05-14T01:10:26.713Z,72.01367
2023-05-14T01:12:26.304Z,71.71191
2023-05-14T01:14:26.166Z,71.50195
2023-05-14T01:16:26.271Z,71.17285
2023-05-14T01:17:51.661Z,71.38281
2023-05-14T01:19:51.494Z,71.07227
2023-05-14T01:21:51.717Z,70.9082
2023-05-14T01:23:51.869Z,71.13184
2023-05-14T01:25:51.566Z,71.25879
2023-05-14T01:27:51.618Z,71.11523
2023-05-14T01:29:51.732Z,71.36328
2023-05-14T01:33:11.542Z,71.51367
2023-05-14T01:35:11.504Z,71.36426
2023-05-14T01:37:11.581Z,72.0127
2023-05-14T01:39:11.956Z,72.86816
2023-05-14T01:41:11.783Z,72.94922
2023-05-14T01:43:11.715Z,72.44434
2023-05-14T01:45:11.683Z,72.68359
2023-05-14T01:48:03.810Z,72.43066
2023-05-14T01:50:03.502Z,73.07129
2023-05-14T01:52:03.367Z,73.53809
2023-05-14T01:54:03.567Z,73.79102
2023-05-14T01:56:03.326Z,74.81934
2023-05-14T01:58:03.560Z,74.68555
2023-05-14T02:00:03.483Z,74.68945
2023-05-14T02:02:03.661Z,75.9248
2023-05-14T02:03:36.210Z,76.92676
2023-05-14T02:05:36.316Z,78.09961
2023-05-14T02:07:36.195Z,77.77539
2023-05-14T02:09:36.375Z,79.77344
2023-05-14T02:11:36.187Z,81.66309
2023-05-14T02:13:36.261Z,80.29199
2023-05-14T02:15:36.197Z,79.875
2023-05-14T02:18:38.119Z,79.11523
2023-05-14T02:20:37.899Z,79.60938
2023-05-14T02:22:37.945Z,79.89063
2023-05-14T02:24:37.944Z,80.4248
2023-05-14T02:26:37.931Z,80.16992
2023-05-14T02:28:37.885Z,81.33594
2023-05-14T02:30:37.876Z,81.85449
2023-05-14T02:33:45.684Z,82.32617
2023-05-14T02:35:45.757Z,82.77832
2023-05-14T02:37:45.657Z,81.26465
2023-05-14T02:39:45.661Z,81.49414
2023-05-14T02:41:45.752Z,81.60938
2023-05-14T02:43:45.703Z,82.11035
2023-05-14T02:45:45.707Z,81.03906
2023-05-14T02:49:00.429Z,80.37988
2023-05-14T02:51:00.324Z,82.11426
2023-05-14T02:53:00.406Z,82.74219
2023-05-14T02:55:00.347Z,82.41602
2023-05-14T02:57:00.413Z,81.65527
2023-05-14T02:59:00.575Z,83.37793
2023-05-14T03:01:01.064Z,82.48926
2023-05-14T03:04:42.796Z,82.67969
2023-05-14T03:06:42.811Z,83.50586
2023-05-14T03:08:42.817Z,81.61914
2023-05-14T03:10:42.770Z,82.03516
2023-05-14T03:12:42.867Z,81.27051
2023-05-14T03:14:42.734Z,80.69922
2023-05-14T03:16:42.920Z,80.34668
2023-05-14T03:19:04.386Z,79.52344
2023-05-14T03:21:04.331Z,78.83496
2023-05-14T03:23:04.104Z,78.4248
2023-05-14T03:25:04.025Z,80.92285
2023-05-14T03:27:04.112Z,80.83398
2023-05-14T03:29:04.270Z,80.12695
2023-05-14T03:31:04.243Z,80.95996
2023-05-14T03:33:04.125Z,78.98633
2023-05-14T03:35:04.334Z,78.59961
2023-05-14T03:37:04.254Z,78.73438
2023-05-14T03:39:04.225Z,78.8125
2023-05-14T03:41:04.234Z,80.49707
2023-05-14T03:43:04.242Z,81.42969
2023-05-14T03:45:04.314Z,82.19629
2023-05-14T03:47:04.204Z,83.26367
2023-05-14T03:50:10.900Z,81.63672
2023-05-14T03:52:10.885Z,80.86719
2023-05-14T03:54:10.869Z,80.21582
2023-05-14T03:56:10.906Z,79.39258
2023-05-14T03:58:10.880Z,79.09277
2023-05-14T04:00:10.949Z,78.74023
2023-05-14T04:02:10.944Z,77.96191
2023-05-14T04:04:52.275Z,77.32617
2023-05-14T04:06:52.095Z,78.19238
2023-05-14T04:08:52.057Z,77.66504
2023-05-14T04:10:52.127Z,77.71094
2023-05-14T04:12:52.220Z,78.19043
2023-05-14T04:14:52.093Z,78.61035
2023-05-14T04:16:52.168Z,76.63477
2023-05-14T04:19:58.783Z,77.72266
2023-05-14T04:21:58.797Z,76.32813
2023-05-14T04:23:58.817Z,77.04688
2023-05-14T04:25:58.726Z,75.70605
2023-05-14T04:27:58.783Z,75.06543
2023-05-14T04:29:58.721Z,74.71387
2023-05-14T04:31:58.927Z,75.97754
2023-05-14T04:34:52.691Z,75.31445
2023-05-14T04:36:52.720Z,74.87793
2023-05-14T04:38:52.672Z,76.73242
2023-05-14T04:40:52.671Z,76.93457
2023-05-14T04:42:52.796Z,77.16016
2023-05-14T04:44:52.749Z,77.90234
2023-05-14T04:46:52.742Z,78.07422
2023-05-14T04:48:52.794Z,78.66797
2023-05-14T04:50:26.194Z,82.08691
2023-05-14T04:52:25.951Z,82.25293
2023-05-14T04:54:26.127Z,84.48047
2023-05-14T04:56:25.750Z,84.35547
2023-05-14T04:58:25.809Z,83.07324
2023-05-14T05:00:26.315Z,82.66113
2023-05-14T05:02:25.774Z,81.81738
2023-05-14T05:05:54.631Z,84.79297
2023-05-14T05:07:54.843Z,87.54785
2023-05-14T05:09:54.597Z,87.13379
2023-05-14T05:11:54.533Z,87.49707
2023-05-14T05:13:54.649Z,88.43066
2023-05-14T05:15:54.772Z,88.63086
2023-05-14T05:17:54.750Z,87.68945
2023-05-14T05:20:30.914Z,88.2373
2023-05-14T05:22:31.138Z,88.15527
2023-05-14T05:24:31.045Z,87.95313
2023-05-14T05:26:31.081Z,90.37793
2023-05-14T05:28:31.127Z,90.5166
2023-05-14T05:30:30.965Z,88.75977
2023-05-14T05:32:31.067Z,87.20508
2023-05-14T05:34:30.889Z,87.05957
2023-05-14T05:36:20.785Z,86.54883
2023-05-14T05:38:20.835Z,86.54492
2023-05-14T05:40:20.741Z,86.56152
2023-05-14T05:42:20.789Z,86.25781
2023-05-14T05:44:20.744Z,87.86426
2023-05-14T05:46:20.833Z,86.39844
2023-05-14T05:48:20.740Z,85.45898
2023-05-14T05:51:22.803Z,86.55859
2023-05-14T05:53:22.837Z,87.46973
2023-05-14T05:55:22.851Z,86.69434
2023-05-14T05:57:26.352Z,88.30371
2023-05-14T05:59:22.943Z,87.0625
2023-05-14T06:01:22.928Z,85.89648
2023-05-14T06:03:23.038Z,86.96484
2023-05-14T06:06:01.427Z,85.42188
2023-05-14T06:08:01.296Z,85.54395
2023-05-14T06:10:01.401Z,85.16406
2023-05-14T06:12:01.527Z,85.03711
2023-05-14T06:14:01.520Z,86.07715
2023-05-14T06:16:01.521Z,85.48535
2023-05-14T06:18:01.444Z,85.77539
2023-05-14T06:20:01.509Z,85.70508
2023-05-14T06:21:25.342Z,85.4873
2023-05-14T06:23:25.074Z,86.58691
2023-05-14T06:25:25.099Z,86.73633
2023-05-14T06:27:25.275Z,85.21094
2023-05-14T06:29:25.484Z,85.4375
2023-05-14T06:31:25.178Z,86.45313
2023-05-14T06:33:25.158Z,86.43359
2023-05-14T06:36:45.238Z,87.58789
2023-05-14T06:38:45.097Z,88.72168
2023-05-14T06:40:45.064Z,87.33203
2023-05-14T06:42:45.057Z,85.95117
2023-05-14T06:44:45.032Z,87.88477
2023-05-14T06:46:44.946Z,88.95801
2023-05-14T06:48:45.193Z,91.25781
2023-05-14T06:51:58.774Z,91.26465
2023-05-14T06:53:58.608Z,90.8877
2023-05-14T06:55:58.658Z,91.4248
2023-05-14T06:57:58.630Z,89.71191
2023-05-14T06:59:58.616Z,88.21973
2023-05-14T07:01:58.966Z,87.16406
2023-05-14T07:03:58.562Z,85.77344
2023-05-14T07:06:49.061Z,84.3457
2023-05-14T07:08:49.043Z,84.35547
2023-05-14T07:10:49.004Z,84.51074
2023-05-14T07:12:49.071Z,84.91406
2023-05-14T07:14:49.005Z,87.2207
2023-05-14T07:16:49.146Z,86.28613
2023-05-14T07:18:49.122Z,87.23828
2023-05-14T07:21:56.349Z,85.80859
2023-05-14T07:23:55.694Z,84.04883
2023-05-14T07:25:55.835Z,83.74121
2023-05-14T07:27:55.587Z,83.04785
2023-05-14T07:29:55.624Z,84.80957
2023-05-14T07:31:55.610Z,85.70605
2023-05-14T07:33:56.380Z,85.29297
2023-05-14T07:37:39.317Z,86.70117
2023-05-14T07:39:39.265Z,84.74902
2023-05-14T07:41:39.216Z,87.01367
2023-05-14T07:43:39.120Z,90.69434
2023-05-14T07:45:39.162Z,88.40918
2023-05-14T07:47:39.270Z,86.50879
2023-05-14T07:49:39.085Z,85.84473
2023-05-14T07:52:19.913Z,85.44531
2023-05-14T07:54:19.840Z,85.73633
2023-05-14T07:56:20.009Z,85.68457
2023-05-14T07:58:19.986Z,88.87793
2023-05-14T08:00:20.063Z,90.46875
2023-05-14T08:02:20.130Z,89.25391
2023-05-14T08:04:20.031Z,88.09277
2023-05-14T08:07:46.602Z,86.86816
2023-05-14T08:09:46.614Z,86.375
2023-05-14T08:11:46.679Z,89.36914
2023-05-14T08:13:46.952Z,88.08008
2023-05-14T08:15:46.667Z,89.3877
2023-05-14T08:17:46.887Z,88.12305
2023-05-14T08:19:46.865Z,86.38867
2023-05-14T08:23:17.290Z,87.4707
2023-05-14T08:25:17.159Z,86.4541
2023-05-14T08:27:17.394Z,85.29199
2023-05-14T08:29:17.316Z,85.5
2023-05-14T08:31:17.173Z,85.75781
2023-05-14T08:33:17.123Z,86.47461
2023-05-14T08:35:17.138Z,86.2627
2023-05-14T08:37:50.363Z,88.48828
2023-05-14T08:39:50.210Z,86.33105
2023-05-14T08:41:50.248Z,86.13867
2023-05-14T08:43:50.373Z,85.4668
2023-05-14T08:45:50.591Z,85.88281
2023-05-14T08:47:50.522Z,86.3916
2023-05-14T08:49:50.118Z,86.16602
2023-05-14T08:53:12.378Z,84.9502
2023-05-14T08:55:12.362Z,84.24121
2023-05-14T08:57:12.358Z,84.5498
2023-05-14T08:59:12.513Z,87.16113
2023-05-14T09:01:12.315Z,89.5752
2023-05-14T09:03:12.396Z,90.11426
2023-05-14T09:05:12.480Z,89.90918
2023-05-14T09:08:30.238Z,88.18359
2023-05-14T09:10:30.426Z,87.40625
2023-05-14T09:12:30.348Z,85.39258
2023-05-14T09:14:30.334Z,83.80859
2023-05-14T09:16:30.412Z,84.67285
2023-05-14T09:18:30.399Z,84.13574
2023-05-14T09:20:30.409Z,84.38379
2023-05-14T09:23:20.154Z,84.26172
2023-05-14T09:25:20.118Z,84.58984
2023-05-14T09:27:19.965Z,84.02832
2023-05-14T09:29:19.954Z,85.99609
2023-05-14T09:31:20.221Z,84.33398
2023-05-14T09:33:19.949Z,83.48926
2023-05-14T09:35:20.230Z,83.67383
2023-05-14T09:38:29.232Z,86.19141
2023-05-14T09:40:30.107Z,84.42969
2023-05-14T09:42:29.234Z,85.08594
2023-05-14T09:44:29.462Z,85.99707
2023-05-14T09:46:29.248Z,88.86133
2023-05-14T09:48:29.333Z,86.5498
2023-05-14T09:50:29.283Z,87.18848
2023-05-14T09:54:03.080Z,85.13672
2023-05-14T09:56:03.140Z,86.89453
2023-05-14T09:58:02.995Z,86.95996
2023-05-14T10:00:03.227Z,86.1377
2023-05-14T10:02:02.915Z,87.83789
2023-05-14T10:04:03.072Z,86.04297
2023-05-14T10:06:03.022Z,85.09863
2023-05-14T10:09:28.220Z,85.80176
2023-05-14T10:11:27.959Z,84.07031
2023-05-14T10:13:27.892Z,82.75098
2023-05-14T10:15:27.972Z,84.76465
2023-05-14T10:17:27.794Z,85.06934
2023-05-14T10:19:27.705Z,84.96387
2023-05-14T10:21:27.675Z,85.04688
2023-05-14T10:24:21.781Z,86.0127
2023-05-14T10:26:24.245Z,86.65137
2023-05-14T10:28:21.707Z,85.78516
2023-05-14T10:30:21.926Z,81.43652
2023-05-14T10:32:21.645Z,83.11328
2023-05-14T10:34:21.691Z,82.87891
2023-05-14T10:36:21.763Z,80.96094
2023-05-14T10:39:44.539Z,84.07324
2023-05-14T10:41:44.320Z,83.19824
2023-05-14T10:43:44.292Z,83.85742
2023-05-14T10:45:44.331Z,82.95215
2023-05-14T10:47:44.252Z,81.6123
2023-05-14T10:49:44.412Z,82.04492
2023-05-14T10:51:44.186Z,81.31738
2023-05-14T10:54:40.007Z,82.08398
2023-05-14T10:56:40.139Z,84.47559
2023-05-14T10:58:40.332Z,85.51563
2023-05-14T11:00:40.011Z,84.9668
2023-05-14T11:02:42.936Z,85.38281
2023-05-14T11:04:40.215Z,85.23633
2023-05-14T11:06:40.066Z,84.82715
2023-05-14T11:09:56.815Z,83.73828
2023-05-14T11:11:56.892Z,82.74707
2023-05-14T11:13:56.832Z,82.36523
2023-05-14T11:15:56.884Z,82.14063
2023-05-14T11:17:56.924Z,82.00391
2023-05-14T11:19:56.968Z,80.08203
2023-05-14T11:21:56.930Z,81.71289
2023-05-14T11:24:47.367Z,79.29688
2023-05-14T11:26:47.393Z,79.67383
2023-05-14T11:28:47.548Z,79.32129
2023-05-14T11:30:47.549Z,78.76563
2023-05-14T11:32:47.382Z,78.9668
2023-05-14T11:34:47.371Z,78.66602
2023-05-14T11:36:47.333Z,79.11328
2023-05-14T11:40:13.629Z,79.69727
2023-05-14T11:42:13.588Z,79.36914
2023-05-14T11:44:13.617Z,79.06934
2023-05-14T11:46:13.709Z,79.11621
2023-05-14T11:48:13.642Z,78.59863
2023-05-14T11:50:13.632Z,78.24219
2023-05-14T11:52:13.808Z,77.31152
2023-05-14T11:55:25.237Z,76.94824
2023-05-14T11:57:25.286Z,77.58594
2023-05-14T11:59:25.439Z,78.10742
2023-05-14T12:01:25.301Z,79.67773
2023-05-14T12:03:25.757Z,77.63965
2023-05-14T12:05:25.279Z,78.22168
2023-05-14T12:07:25.239Z,77.88867
2023-05-14T12:10:16.809Z,78.24316
2023-05-14T12:12:16.708Z,78.01953
2023-05-14T12:14:16.696Z,77.32813
2023-05-14T12:16:17.123Z,77.31152
2023-05-14T12:18:26.237Z,75.21094
2023-05-14T12:20:16.770Z,78.18262
2023-05-14T12:22:16.740Z,77.31836
2023-05-14T12:25:31.609Z,79.36719
2023-05-14T12:27:31.573Z,77.19824
2023-05-14T12:29:31.570Z,79.19238
2023-05-14T12:31:31.689Z,79.01074
2023-05-14T12:33:31.556Z,78.04492
2023-05-14T12:35:31.667Z,76.93359
2023-05-14T12:37:31.611Z,79.04199
2023-05-14T12:40:23.580Z,79.12402
2023-05-14T12:42:23.010Z,79.66016
2023-05-14T12:44:23.007Z,79.52344
2023-05-14T12:46:22.929Z,79.90332
2023-05-14T12:48:23.045Z,79.21875
2023-05-14T12:50:23.557Z,78.52734
2023-05-14T12:52:38.242Z,79.14746
2023-05-14T12:54:22.939Z,78.4873
2023-05-14T12:55:44.274Z,79.00195
2023-05-14T12:57:44.296Z,79.60254
2023-05-14T12:59:44.300Z,79.27344
2023-05-14T13:01:44.271Z,79.93652
2023-05-14T13:03:44.325Z,78.8916
2023-05-14T13:05:44.268Z,78.97949
2023-05-14T13:07:44.283Z,78.84961
2023-05-14T13:11:05.079Z,80.48926
2023-05-14T13:13:04.713Z,81.48828
2023-05-14T13:15:04.598Z,79.99219
2023-05-14T13:17:04.549Z,79.9873
2023-05-14T13:19:04.658Z,79.43945
2023-05-14T13:21:04.514Z,80.61133
2023-05-14T13:23:04.436Z,80.04883
2023-05-14T13:26:09.417Z,79.49512
2023-05-14T13:28:09.601Z,79.8877
2023-05-14T13:30:09.501Z,79.55566
2023-05-14T13:32:09.418Z,82.64844
2023-05-14T13:34:09.601Z,81.7168
2023-05-14T13:36:09.727Z,81.32129
2023-05-14T13:38:09.500Z,80.75391
2023-05-14T13:41:32.702Z,80.9541
2023-05-14T13:43:32.626Z,80.83887
2023-05-14T13:45:32.616Z,81.16406
2023-05-14T13:47:32.702Z,80.97559
2023-05-14T13:49:32.738Z,80.24316
2023-05-14T13:51:32.864Z,81.09766
2023-05-14T13:53:32.670Z,81.95898
2023-05-14T13:56:40.473Z,81.93652
2023-05-14T13:58:40.504Z,81.36719
2023-05-14T14:00:40.673Z,81.59668
2023-05-14T14:02:40.715Z,81.77441
2023-05-14T14:04:40.641Z,82.43848
2023-05-14T14:06:40.566Z,82.19336
2023-05-14T14:08:40.609Z,81.99121
2023-05-14T14:11:51.160Z,83.02637
2023-05-14T14:13:50.985Z,82.97559
2023-05-14T14:15:51.103Z,83.21777
2023-05-14T14:17:50.965Z,83.02734
2023-05-14T14:19:52.300Z,82.66309
2023-05-14T14:23:50.903Z,83.28906
2023-05-14T14:26:32.824Z,84.02051
2023-05-14T14:28:32.906Z,83.01563
2023-05-14T14:30:32.832Z,82.9248
2023-05-14T14:32:32.988Z,81.44531
2023-05-14T14:34:32.914Z,83.04395
2023-05-14T14:36:32.971Z,82.66309
2023-05-14T14:38:32.868Z,82.65234
2023-05-14T14:40:32.886Z,82.73047
2023-05-14T14:42:21.224Z,83.30957
2023-05-14T14:44:21.264Z,83.08203
2023-05-14T14:46:21.330Z,82.3125
2023-05-14T14:48:21.228Z,82.84961
2023-05-14T14:50:21.137Z,82.59668
2023-05-14T14:52:21.265Z,82.16992
2023-05-14T14:54:21.354Z,82.12305
2023-05-14T14:56:46.751Z,82.93164
2023-05-14T14:58:46.761Z,82.91016
2023-05-14T15:00:46.537Z,82.83691
2023-05-14T15:02:46.828Z,83.07227
2023-05-14T15:04:46.533Z,82.91602
2023-05-14T15:06:46.459Z,84.47461
2023-05-14T15:08:46.523Z,84.80957
2023-05-14T15:10:46.484Z,85.31348
2023-05-14T15:12:18.396Z,84.76953
2023-05-14T15:14:18.358Z,84.41309
2023-05-14T15:16:18.397Z,83.94434
2023-05-14T15:18:18.340Z,84.53418
2023-05-14T15:20:18.282Z,84.86621
2023-05-14T15:22:18.305Z,84.72461
2023-05-14T15:24:18.349Z,85.03516
2023-05-14T15:27:16.988Z,84.42578
2023-05-14T15:29:16.934Z,84.30371
2023-05-14T15:31:17.021Z,84.6543
2023-05-14T15:33:17.090Z,84.59082
2023-05-14T15:35:17.087Z,84.49121
2023-05-14T15:37:16.895Z,85.11133
2023-05-14T15:39:16.918Z,84.85547
2023-05-14T15:41:16.973Z,86.94434
2023-05-14T15:42:56.595Z,86.0625
2023-05-14T15:44:56.561Z,85.60645
2023-05-14T15:46:56.583Z,86.10059
2023-05-14T15:48:56.549Z,86.69238
2023-05-14T15:50:56.574Z,85.99219
2023-05-14T15:52:56.571Z,86.37988
2023-05-14T15:54:56.586Z,86.98047
2023-05-14T15:57:43.691Z,86.7959
2023-05-14T15:59:43.784Z,87.0332
2023-05-14T16:01:46.353Z,87.34766
2023-05-14T16:03:44.025Z,86.7998
2023-05-14T16:05:44.165Z,87.14258
2023-05-14T16:07:44.122Z,87.19824
2023-05-14T16:09:44.071Z,86.86523
2023-05-14T16:12:51.644Z,86.56055
2023-05-14T16:14:54.221Z,87.64551
2023-05-14T16:16:51.863Z,87.56445
2023-05-14T16:18:51.825Z,87.98926
2023-05-14T16:20:51.709Z,88.25098
2023-05-14T16:22:51.685Z,88.12305
2023-05-14T16:24:52.015Z,87.74219
2023-05-14T16:28:13.957Z,87.88477
2023-05-14T16:30:14.333Z,87.83301
2023-05-14T16:32:14.110Z,87.72754
2023-05-14T16:34:14.251Z,87.87109
2023-05-14T16:36:14.338Z,87.88184
2023-05-14T16:38:14.038Z,87.95996
2023-05-14T16:40:13.986Z,87.48242
2023-05-14T16:43:43.372Z,87.65723
2023-05-14T16:45:43.317Z,88.00293
2023-05-14T16:47:43.392Z,88.22559
2023-05-14T16:49:43.429Z,88.29395
2023-05-14T16:51:43.562Z,88.47559
2023-05-14T16:53:43.289Z,88.74023
2023-05-14T16:55:43.325Z,89.2373
2023-05-14T16:58:21.183Z,89.15137
2023-05-14T17:00:18.840Z,88.29492
2023-05-14T17:02:18.788Z,88.09668
2023-05-14T17:04:18.933Z,87.8418
2023-05-14T17:06:19.126Z,87.89746
2023-05-14T17:08:18.845Z,88.58887
2023-05-14T17:10:18.913Z,88.86035
2023-05-14T17:12:18.932Z,89.10938
2023-05-14T17:13:42.851Z,88.88574
2023-05-14T17:15:42.881Z,88.69629
2023-05-14T17:17:42.821Z,88.43945
2023-05-14T17:19:42.833Z,87.86133
2023-05-14T17:21:42.823Z,87.96191
2023-05-14T17:23:42.841Z,87.96387
2023-05-14T17:25:42.806Z,88.35059
2023-05-14T17:29:01.984Z,87.60742
2023-05-14T17:31:02.053Z,87.43945
2023-05-14T17:33:02.227Z,87.20801
2023-05-14T17:35:01.850Z,86.73926
2023-05-14T17:37:02.078Z,87.03613
2023-05-14T17:39:02.059Z,86.8252
2023-05-14T17:41:02.371Z,86.00977
2023-05-14T17:44:13.940Z,86.43848
2023-05-14T17:46:14.470Z,86.50195
2023-05-14T17:48:14.220Z,86.77539
2023-05-14T17:50:13.772Z,86.50879
2023-05-14T17:52:13.847Z,87.02148
2023-05-14T17:54:13.895Z,86.73828
2023-05-14T17:56:13.783Z,86.95703
2023-05-14T17:59:29.705Z,86.92383
2023-05-14T18:01:29.981Z,87.30762
2023-05-14T18:03:30.001Z,86.90918
2023-05-14T18:05:29.712Z,86.81055
2023-05-14T18:07:29.551Z,86.76465
2023-05-14T18:09:29.629Z,86.61426
2023-05-14T18:11:29.569Z,86.93652
2023-05-14T18:14:37.450Z,87.30566
2023-05-14T18:16:37.462Z,86.77246
2023-05-14T18:18:37.571Z,87.11914
2023-05-14T18:20:37.442Z,87.38281
2023-05-14T18:22:37.528Z,87.31055
2023-05-14T18:24:37.381Z,87.45898
2023-05-14T18:26:37.416Z,87.03223
2023-05-14T18:29:45.881Z,87.1875
2023-05-14T18:31:45.719Z,87.68262
2023-05-14T18:33:45.806Z,87.91113
2023-05-14T18:35:46.091Z,87.40918
2023-05-14T18:37:45.745Z,87.04688
2023-05-14T18:39:45.860Z,86.79199
2023-05-14T18:41:45.989Z,87.39941
2023-05-14T18:45:03.583Z,87.45117
2023-05-14T18:47:03.464Z,87.47363
2023-05-14T18:49:03.470Z,87.19531
2023-05-14T18:51:03.523Z,87.0752
2023-05-14T18:53:03.606Z,87.4502
2023-05-14T18:55:03.522Z,87.24902
2023-05-14T18:57:03.669Z,87.38672
2023-05-14T18:59:41.689Z,86.97559
2023-05-14T19:01:41.866Z,86.71094
2023-05-14T19:03:41.827Z,87.05957
2023-05-14T19:05:41.832Z,86.65527
2023-05-14T19:07:41.700Z,86.7959
2023-05-14T19:09:41.798Z,86.71973
2023-05-14T19:11:41.580Z,86.9209
2023-05-14T19:14:52.038Z,86.90527
2023-05-14T19:16:51.556Z,86.65332
2023-05-14T19:18:51.616Z,86.25488
2023-05-14T19:20:51.861Z,86.17773
2023-05-14T19:22:51.436Z,86.37207
2023-05-14T19:24:51.516Z,86.18555
2023-05-14T19:26:51.647Z,85.56543
2023-05-14T19:30:40.239Z,85.85449
2023-05-14T19:32:40.455Z,85.75586
2023-05-14T19:34:40.265Z,85.47461
2023-05-14T19:36:40.251Z,85.48926
2023-05-14T19:38:40.244Z,85.69238
2023-05-14T19:40:40.308Z,85.86914
2023-05-14T19:42:40.277Z,85.95313
2023-05-14T19:45:46.177Z,85.56348
2023-05-14T19:47:46.205Z,85.68848
2023-05-14T19:49:46.204Z,85.47656
2023-05-14T19:51:46.336Z,85.95313
2023-05-14T19:53:46.221Z,85.57031
2023-05-14T19:55:46.275Z,85.81348
2023-05-14T19:57:46.246Z,85.66602
2023-05-14T20:00:39.928Z,86.14063
2023-05-14T20:02:40.006Z,86.18555
2023-05-14T20:04:39.820Z,86.37109
2023-05-14T20:06:39.825Z,86.13477
2023-05-14T20:08:39.903Z,86.5791
2023-05-14T20:10:39.829Z,86.63379
2023-05-14T20:12:39.915Z,87.06934
2023-05-14T20:15:54.198Z,86.4541
2023-05-14T20:17:54.333Z,86.36719
2023-05-14T20:19:54.064Z,85.82617
2023-05-14T20:21:54.066Z,86.19043
2023-05-14T20:23:54.088Z,86.51953
2023-05-14T20:25:54.062Z,86.47949
2023-05-14T20:27:54.066Z,86.31152
2023-05-14T20:30:50.082Z,86.74316
2023-05-14T20:32:50.141Z,86.88477
2023-05-14T20:34:49.944Z,87.10645
2023-05-14T20:36:50.248Z,87.05859
2023-05-14T20:38:50.154Z,86.92383
2023-05-14T20:40:50.240Z,86.62109
2023-05-14T20:42:50.002Z,86.71094
2023-05-14T20:45:55.845Z,87.4248
2023-05-14T20:47:56.028Z,87.60352
2023-05-14T20:49:55.920Z,86.84863
2023-05-14T20:51:55.911Z,86.94141
2023-05-14T20:53:55.941Z,86.75684
2023-05-14T20:55:55.995Z,86.34766
2023-05-14T20:57:55.879Z,86
2023-05-14T21:01:10.745Z,85.89551
2023-05-14T21:03:11.248Z,85.68457
2023-05-14T21:05:10.791Z,85.35449
2023-05-14T21:07:10.708Z,85.22656
2023-05-14T21:09:10.789Z,85.4541
2023-05-14T21:11:11.037Z,84.94727
2023-05-14T21:13:10.613Z,85.29883
2023-05-14T21:16:49.028Z,85.10254
2023-05-14T21:18:48.927Z,85.1709
2023-05-14T21:20:48.852Z,84.24805
2023-05-14T21:22:48.776Z,83.79199
2023-05-14T21:24:48.899Z,83.50195
2023-05-14T21:26:48.657Z,83.72559
2023-05-14T21:28:48.654Z,83.55566
2023-05-14T21:31:42.825Z,83.8584
2023-05-14T21:33:42.784Z,84.4873
2023-05-14T21:35:42.773Z,84.70215
2023-05-14T21:37:42.731Z,86.27637
2023-05-14T21:39:42.764Z,85.65234
2023-05-14T21:41:43.149Z,85.1748
2023-05-14T21:43:42.764Z,85.30762
2023-05-14T21:47:04.507Z,85.07715
2023-05-14T21:49:04.767Z,84.24609
2023-05-14T21:51:04.500Z,84.06543
2023-05-14T21:53:04.486Z,83.97363
2023-05-14T21:55:04.482Z,84.21387
2023-05-14T21:57:04.506Z,84.02637
2023-05-14T21:59:04.572Z,84.78516
2023-05-14T22:02:21.171Z,85.6123
2023-05-14T22:04:21.227Z,84.93262
2023-05-14T22:06:20.908Z,84.9541
2023-05-14T22:08:20.962Z,85.89258
2023-05-14T22:10:20.910Z,85.35547
2023-05-14T22:12:20.958Z,85.18066
2023-05-14T22:14:20.929Z,84.98535
2023-05-14T22:17:35.914Z,85.72363
2023-05-14T22:19:35.778Z,85.76563
2023-05-14T22:21:35.853Z,85.41797
2023-05-14T22:23:35.778Z,84.8877
2023-05-14T22:25:35.780Z,85.28125
2023-05-14T22:27:35.789Z,84.67773
2023-05-14T22:29:38.561Z,85.56543
2023-05-14T22:32:40.149Z,85.47949
2023-05-14T22:34:40.121Z,85.78809
2023-05-14T22:36:40.117Z,86.10645
2023-05-14T22:38:40.102Z,85.81348
2023-05-14T22:40:40.081Z,85.6543
2023-05-14T22:42:40.114Z,86.00391
2023-05-14T22:44:40.179Z,86.24316
2023-05-14T22:47:58.267Z,86.10254
2023-05-14T22:49:58.164Z,86.45703
2023-05-14T22:51:58.214Z,86.45801
2023-05-14T22:53:58.156Z,87.17383
2023-05-14T22:55:58.159Z,86.81445
2023-05-14T22:57:58.175Z,86.45313
2023-05-14T22:59:58.251Z,86.5625
2023-05-14T23:02:17.770Z,87.00488
2023-05-14T23:04:17.908Z,86.6748
2023-05-14T23:06:17.856Z,86.8125
2023-05-14T23:08:17.821Z,86.80273
2023-05-14T23:10:17.646Z,86.96387
2023-05-14T23:12:17.762Z,87.27637
2023-05-14T23:14:17.770Z,87.24707
2023-05-14T23:16:17.758Z,87.47949
2023-05-14T23:17:27.724Z,87.65723
2023-05-14T23:19:27.667Z,87.20313
2023-05-14T23:21:27.594Z,86.99609
2023-05-14T23:23:27.488Z,86.8125
2023-05-14T23:25:27.583Z,86.50488
2023-05-14T23:27:27.436Z,86.04883
2023-05-14T23:29:27.464Z,86.29785
2023-05-14T23:31:27.673Z,86.62891
2023-05-14T23:33:17.014Z,87.52832
2023-05-14T23:35:16.999Z,88.04785
2023-05-14T23:37:17.008Z,87.63281
2023-05-14T23:39:17.217Z,87.4375
2023-05-14T23:41:16.984Z,87.96191
2023-05-14T23:43:16.990Z,88.18066
2023-05-14T23:45:17.053Z,88.32324
2023-05-14T23:48:09.153Z,87.74512
2023-05-14T23:50:08.761Z,87.82813
2023-05-14T23:52:08.698Z,87.7168
2023-05-14T23:54:08.843Z,87.8584
2023-05-14T23:56:08.729Z,87.60938
2023-05-14T23:58:08.712Z,88.12305
